createdAt,value
2023-01-13T00:01:52.898Z,9.10
2023-01-13T00:04:22.716Z,9.20
2023-01-13T00:06:53.984Z,9.20
2023-01-13T00:09:23.738Z,9.20
2023-01-13T00:11:53.468Z,9.10
2023-01-13T00:14:23.324Z,9.20
2023-01-13T00:16:52.992Z,9.10
2023-01-13T00:19:22.833Z,9.20
2023-01-13T00:21:53.887Z,9.20
2023-01-13T00:24:23.678Z,9.20
2023-01-13T00:26:53.586Z,9.20
2023-01-13T00:29:23.589Z,9.30
2023-01-13T00:31:55.424Z,9.30
2023-01-13T00:34:25.085Z,9.30
2023-01-13T00:36:56.711Z,9.30
2023-01-13T00:39:26.563Z,9.40
2023-01-13T00:42:14.025Z,9.40
2023-01-13T00:44:43.720Z,9.40
2023-01-13T00:47:13.544Z,9.40
2023-01-13T00:49:43.262Z,9.30
2023-01-13T00:52:14.372Z,9.40
2023-01-13T00:54:44.059Z,9.30
2023-01-13T00:57:15.259Z,9.50
2023-01-13T00:59:45.217Z,9.40
2023-01-13T01:02:15.161Z,9.40
2023-01-13T01:04:45.087Z,9.40
2023-01-13T01:07:16.133Z,9.50
2023-01-13T01:09:45.897Z,9.40
2023-01-13T01:12:15.725Z,9.50
2023-01-13T01:14:45.540Z,9.50
2023-01-13T01:17:16.670Z,9.50
2023-01-13T01:19:46.542Z,9.50
2023-01-13T01:22:17.641Z,9.60
2023-01-13T01:24:48.221Z,9.60
2023-01-13T01:27:17.883Z,9.60
2023-01-13T01:29:47.751Z,9.60
2023-01-13T01:32:17.735Z,9.60
2023-01-13T01:34:47.614Z,9.60
2023-01-13T01:37:18.814Z,9.70
2023-01-13T01:39:48.701Z,9.60
2023-01-13T01:42:38.089Z,9.70
2023-01-13T01:45:19.537Z,9.60
2023-01-13T01:47:53.147Z,9.60
2023-01-13T01:50:23.646Z,9.70
2023-01-13T01:52:57.626Z,9.60
2023-01-13T01:55:31.622Z,9.70
2023-01-13T01:58:07.376Z,9.60
2023-01-13T02:00:37.130Z,9.70
2023-01-13T02:03:08.247Z,9.60
2023-01-13T02:05:39.380Z,9.70
2023-01-13T02:08:14.195Z,9.60
2023-01-13T02:10:47.239Z,9.60
2023-01-13T02:13:21.748Z,9.60
2023-01-13T02:15:58.837Z,9.60
2023-01-13T02:18:39.494Z,9.60
2023-01-13T02:21:52.569Z,9.70
2023-01-13T02:24:57.542Z,9.60
2023-01-13T02:27:49.732Z,9.70
2023-01-13T02:30:51.030Z,9.70
2023-01-13T02:33:33.083Z,9.80
2023-01-13T02:36:07.254Z,9.70
2023-01-13T02:38:44.585Z,9.70
2023-01-13T02:41:37.638Z,9.70
2023-01-13T02:44:07.784Z,9.70
2023-01-13T02:46:44.491Z,9.80
2023-01-13T02:49:19.719Z,9.80
2023-01-13T02:51:52.834Z,9.80
2023-01-13T02:54:27.729Z,9.70
2023-01-13T02:56:58.875Z,9.70
2023-01-13T02:59:31.516Z,9.80
2023-01-13T03:02:03.441Z,9.70
2023-01-13T03:04:50.461Z,9.70
2023-01-13T03:07:53.306Z,9.80
2023-01-13T03:10:32.987Z,9.70
2023-01-13T03:13:09.471Z,9.80
2023-01-13T03:15:45.718Z,9.80
2023-01-13T03:18:24.262Z,9.80
2023-01-13T03:21:00.459Z,9.80
2023-01-13T03:23:36.352Z,9.90
2023-01-13T03:26:11.880Z,9.90
2023-01-13T03:28:47.163Z,9.80
2023-01-13T03:31:23.585Z,9.80
2023-01-13T03:34:01.086Z,9.80
2023-01-13T03:36:32.595Z,9.90
2023-01-13T03:39:07.348Z,9.80
2023-01-13T03:41:43.125Z,9.80
2023-01-13T03:44:22.514Z,9.80
2023-01-13T03:46:57.528Z,9.70
2023-01-13T03:49:32.304Z,9.80
2023-01-13T03:52:07.423Z,9.70
2023-01-13T03:54:41.486Z,9.80
2023-01-13T03:57:15.674Z,9.80
2023-01-13T03:59:49.777Z,9.80
2023-01-13T04:02:25.327Z,9.80
2023-01-13T04:05:02.889Z,9.90
2023-01-13T04:07:41.305Z,9.80
2023-01-13T04:10:12.805Z,9.70
2023-01-13T04:13:05.395Z,9.80
2023-01-13T04:15:37.375Z,9.80
2023-01-13T04:18:19.207Z,9.90
2023-01-13T04:20:52.204Z,9.90
2023-01-13T04:23:23.287Z,9.80
2023-01-13T04:25:53.589Z,9.80
2023-01-13T04:28:24.256Z,9.70
2023-01-13T04:30:54.413Z,9.60
2023-01-13T04:33:24.448Z,9.70
2023-01-13T04:35:55.603Z,9.70
2023-01-13T04:38:25.528Z,9.60
2023-01-13T04:40:55.311Z,9.60
2023-01-13T04:43:25.204Z,9.60
2023-01-13T04:45:55.208Z,9.60
2023-01-13T04:48:24.848Z,9.60
2023-01-13T04:50:56.038Z,9.60
2023-01-13T04:53:25.847Z,9.60
2023-01-13T04:55:55.637Z,9.60
2023-01-13T04:58:25.471Z,9.70
2023-01-13T05:00:55.562Z,9.70
2023-01-13T05:03:26.711Z,9.80
2023-01-13T05:05:57.880Z,9.70
2023-01-13T05:08:27.757Z,9.70
2023-01-13T05:11:00.637Z,9.70
2023-01-13T05:13:48.230Z,9.70
2023-01-13T05:16:35.707Z,9.70
2023-01-13T05:19:05.557Z,9.70
2023-01-13T05:21:54.178Z,9.80
2023-01-13T05:24:41.636Z,9.70
2023-01-13T05:27:11.411Z,9.70
2023-01-13T05:29:41.208Z,9.80
2023-01-13T05:32:10.974Z,9.80
2023-01-13T05:34:41.011Z,9.80
2023-01-13T05:37:13.250Z,9.60
2023-01-13T05:40:00.437Z,9.30
2023-01-13T05:42:53.595Z,9.30
2023-01-13T05:45:23.424Z,9.30
2023-01-13T05:47:53.282Z,9.20
2023-01-13T05:50:23.094Z,9.20
2023-01-13T05:52:54.321Z,9.20
2023-01-13T05:55:24.137Z,9.20
2023-01-13T05:57:53.938Z,9.20
2023-01-13T06:00:24.674Z,9.10
2023-01-13T06:02:55.097Z,9.20
2023-01-13T06:05:24.991Z,9.20
2023-01-13T06:07:57.841Z,8.80
2023-01-13T06:10:28.499Z,8.50
2023-01-13T06:12:58.428Z,8.40
2023-01-13T06:15:28.197Z,8.30
2023-01-13T06:17:58.038Z,8.00
2023-01-13T06:20:28.622Z,7.90
2023-01-13T06:23:00.311Z,7.80
2023-01-13T06:25:36.504Z,7.70
2023-01-13T06:28:06.502Z,7.80
2023-01-13T06:30:40.832Z,7.80
2023-01-13T06:33:13.506Z,7.80
2023-01-13T06:35:45.498Z,7.80
2023-01-13T06:38:20.258Z,7.70
2023-01-13T06:40:50.403Z,7.60
2023-01-13T06:43:20.967Z,7.50
2023-01-13T06:45:53.996Z,7.60
2023-01-13T06:48:32.779Z,7.50
2023-01-13T06:51:02.623Z,7.40
2023-01-13T06:53:34.345Z,7.30
2023-01-13T06:56:03.935Z,7.20
2023-01-13T06:58:33.864Z,7.20
2023-01-13T07:01:04.277Z,7.20
2023-01-13T07:03:33.823Z,7.20
2023-01-13T07:06:03.588Z,7.30
2023-01-13T07:08:34.516Z,7.40
2023-01-13T07:11:04.836Z,7.40
2023-01-13T07:13:52.846Z,7.40
2023-01-13T07:16:24.297Z,7.40
2023-01-13T07:18:53.938Z,7.40
2023-01-13T07:21:23.784Z,7.30
2023-01-13T07:23:54.752Z,7.20
2023-01-13T07:26:24.614Z,7.10
2023-01-13T07:28:54.713Z,7.20
2023-01-13T07:31:25.885Z,7.10
2023-01-13T07:33:55.667Z,7.10
2023-01-13T07:36:25.498Z,7.00
2023-01-13T07:38:56.767Z,7.00
2023-01-13T07:41:44.159Z,7.00
2023-01-13T07:44:13.876Z,7.00
2023-01-13T07:46:43.564Z,7.00
2023-01-13T07:49:14.154Z,7.00
2023-01-13T07:51:43.973Z,7.10
2023-01-13T07:54:15.100Z,7.10
2023-01-13T07:56:44.929Z,7.10
2023-01-13T07:59:14.747Z,7.10
2023-01-13T08:01:44.727Z,7.20
2023-01-13T08:04:14.429Z,7.10
2023-01-13T08:06:44.355Z,7.10
2023-01-13T08:09:16.364Z,7.20
2023-01-13T08:12:06.126Z,7.30
2023-01-13T08:14:36.121Z,7.30
2023-01-13T08:17:06.093Z,7.30
2023-01-13T08:19:35.900Z,7.30
2023-01-13T08:22:05.640Z,7.30
2023-01-13T08:24:36.850Z,7.30
2023-01-13T08:27:06.556Z,7.40
2023-01-13T08:29:36.530Z,7.40
2023-01-13T08:32:06.414Z,7.40
2023-01-13T08:34:36.914Z,7.40
2023-01-13T08:37:06.531Z,7.40
2023-01-13T08:39:37.898Z,7.40
2023-01-13T08:42:07.717Z,7.30
2023-01-13T08:44:37.466Z,7.30
2023-01-13T08:47:07.433Z,7.30
2023-01-13T08:49:37.058Z,7.30
2023-01-13T08:52:06.938Z,7.40
2023-01-13T08:54:38.280Z,7.30
2023-01-13T08:57:06.523Z,7.40
2023-01-13T08:59:37.121Z,7.40
2023-01-13T09:02:10.858Z,7.40
2023-01-13T09:04:40.718Z,7.40
2023-01-13T09:07:11.124Z,7.40
2023-01-13T09:09:42.505Z,7.40
2023-01-13T09:12:37.517Z,7.60
2023-01-13T09:15:18.277Z,7.60
2023-01-13T09:17:48.195Z,7.60
2023-01-13T09:20:17.869Z,7.60
2023-01-13T09:22:47.697Z,7.60
2023-01-13T09:25:18.797Z,7.60
2023-01-13T09:27:50.040Z,7.70
2023-01-13T09:30:20.884Z,7.70
2023-01-13T09:33:10.818Z,7.80
2023-01-13T09:35:41.466Z,7.90
2023-01-13T09:38:11.112Z,8.00
2023-01-13T09:40:43.796Z,8.00
2023-01-13T09:43:38.267Z,8.10
2023-01-13T09:46:32.147Z,8.30
2023-01-13T09:49:03.603Z,8.60
2023-01-13T09:51:37.064Z,8.90
2023-01-13T09:54:12.389Z,9.20
2023-01-13T09:56:43.613Z,9.30
2023-01-13T09:59:16.222Z,9.30
2023-01-13T10:01:54.207Z,9.30
2023-01-13T10:04:23.949Z,9.50
2023-01-13T10:06:56.563Z,9.60
2023-01-13T10:09:34.991Z,9.30
2023-01-13T10:12:27.760Z,9.40
2023-01-13T10:14:58.417Z,9.40
2023-01-13T10:17:35.161Z,9.50
2023-01-13T10:20:13.290Z,9.60
2023-01-13T10:22:52.926Z,9.60
2023-01-13T10:25:28.664Z,9.80
2023-01-13T10:28:09.845Z,9.80
2023-01-13T10:30:42.107Z,10.00
2023-01-13T10:33:17.433Z,10.00
2023-01-13T10:35:55.357Z,10.00
2023-01-13T10:38:28.085Z,10.00
2023-01-13T10:40:57.872Z,9.90
2023-01-13T10:43:30.231Z,9.90
2023-01-13T10:46:01.576Z,10.00
2023-01-13T10:48:41.427Z,10.10
2023-01-13T10:51:31.902Z,10.20
2023-01-13T10:54:04.343Z,10.20
2023-01-13T10:56:36.239Z,10.40
2023-01-13T10:59:23.387Z,10.50
2023-01-13T11:02:04.038Z,10.50
2023-01-13T11:04:41.125Z,10.30
2023-01-13T11:07:23.900Z,10.30
2023-01-13T11:10:06.240Z,10.40
2023-01-13T11:12:41.578Z,10.50
2023-01-13T11:15:24.705Z,10.60
2023-01-13T11:18:02.148Z,10.50
2023-01-13T11:20:36.946Z,10.60
2023-01-13T11:23:14.032Z,10.70
2023-01-13T11:25:47.897Z,10.40
2023-01-13T11:28:39.958Z,10.40
2023-01-13T11:31:18.000Z,10.40
2023-01-13T11:33:53.309Z,10.00
2023-01-13T11:36:25.522Z,9.80
2023-01-13T11:38:58.093Z,9.60
2023-01-13T11:41:32.864Z,9.60
2023-01-13T11:44:14.870Z,9.80
2023-01-13T11:46:48.790Z,9.70
2023-01-13T11:49:27.140Z,9.70
2023-01-13T11:52:01.749Z,9.80
2023-01-13T11:54:54.493Z,9.80
2023-01-13T11:57:53.412Z,9.90
2023-01-13T12:00:33.727Z,10.20
2023-01-13T12:03:19.238Z,10.30
2023-01-13T12:06:02.970Z,10.30
2023-01-13T12:08:50.780Z,9.90
2023-01-13T12:11:25.564Z,9.80
2023-01-13T12:14:14.090Z,9.70
2023-01-13T12:16:48.910Z,9.70
2023-01-13T12:19:29.985Z,9.30
2023-01-13T12:22:11.804Z,9.40
2023-01-13T12:24:45.764Z,9.10
2023-01-13T12:27:21.471Z,9.10
2023-01-13T12:29:55.302Z,9.10
2023-01-13T12:32:30.543Z,9.00
2023-01-13T12:35:23.992Z,9.00
2023-01-13T12:38:02.250Z,9.20
2023-01-13T12:40:43.733Z,9.40
2023-01-13T12:43:38.803Z,9.70
2023-01-13T12:46:35.617Z,9.80
2023-01-13T12:49:18.228Z,9.70
2023-01-13T12:55:12.200Z,9.60
2023-01-13T12:57:55.940Z,9.50
2023-01-13T13:00:31.849Z,9.50
2023-01-13T13:03:29.176Z,9.40
2023-01-13T13:06:03.232Z,9.20
2023-01-13T13:08:47.785Z,9.00
2023-01-13T13:11:52.721Z,8.90
2023-01-13T13:14:53.858Z,8.90
2023-01-13T13:17:43.152Z,8.90
2023-01-13T13:20:54.076Z,8.90
2023-01-13T13:24:03.112Z,8.90
2023-01-13T13:26:39.385Z,8.90
2023-01-13T13:29:28.317Z,8.90
2023-01-13T13:32:43.003Z,8.90
2023-01-13T13:35:52.036Z,8.90
2023-01-13T13:38:50.170Z,8.80
2023-01-13T13:41:40.588Z,8.80
2023-01-13T13:44:34.550Z,8.80
2023-01-13T13:47:06.362Z,8.80
2023-01-13T13:49:41.247Z,8.70
2023-01-13T13:52:19.590Z,8.60
2023-01-13T13:54:52.958Z,8.50
2023-01-13T13:57:24.211Z,8.50
2023-01-13T13:59:58.488Z,8.60
2023-01-13T14:02:32.551Z,8.50
2023-01-13T14:05:20.494Z,8.50
2023-01-13T14:07:51.811Z,8.20
2023-01-13T14:10:25.816Z,7.60
2023-01-13T14:12:55.627Z,7.20
2023-01-13T14:15:32.721Z,7.10
2023-01-13T14:18:02.869Z,7.00
2023-01-13T14:20:34.548Z,6.90
2023-01-13T14:23:05.871Z,6.90
2023-01-13T14:25:40.313Z,7.00
2023-01-13T14:28:24.109Z,7.00
2023-01-13T14:30:54.962Z,6.90
2023-01-13T14:33:28.149Z,6.90
2023-01-13T14:36:14.620Z,6.60
2023-01-13T14:38:46.285Z,6.60
2023-01-13T14:41:21.971Z,6.60
2023-01-13T14:43:54.168Z,6.60
2023-01-13T14:46:25.527Z,6.60
2023-01-13T14:49:01.830Z,6.60
2023-01-13T14:51:32.529Z,6.60
2023-01-13T14:54:02.548Z,6.60
2023-01-13T14:56:44.179Z,6.70
2023-01-13T14:59:41.828Z,6.70
2023-01-13T15:02:39.005Z,6.70
2023-01-13T15:05:39.440Z,6.70
2023-01-13T15:08:29.624Z,6.70
2023-01-13T15:11:04.758Z,6.80
2023-01-13T15:13:41.185Z,6.70
2023-01-13T15:16:22.575Z,6.80
2023-01-13T15:18:52.362Z,6.90
2023-01-13T15:21:23.069Z,6.80
2023-01-13T15:23:52.864Z,6.80
2023-01-13T15:26:23.415Z,6.90
2023-01-13T15:28:55.787Z,6.80
2023-01-13T15:31:26.388Z,7.00
2023-01-13T15:33:56.299Z,7.00
2023-01-13T15:36:27.661Z,7.00
2023-01-13T15:38:57.614Z,7.10
2023-01-13T15:41:45.475Z,7.00
2023-01-13T15:44:35.958Z,7.00
2023-01-13T15:47:10.022Z,7.00
2023-01-13T15:49:41.911Z,7.00
2023-01-13T15:52:22.363Z,7.00
2023-01-13T15:54:52.822Z,7.00
2023-01-13T15:57:25.636Z,7.00
2023-01-13T15:59:59.742Z,6.90
2023-01-13T16:02:30.928Z,6.90
2023-01-13T16:05:00.591Z,7.00
2023-01-13T16:07:30.478Z,7.00
2023-01-13T16:10:01.750Z,7.10
2023-01-13T16:12:31.516Z,7.10
2023-01-13T16:15:02.525Z,7.20
2023-01-13T16:17:34.435Z,7.20
2023-01-13T16:20:04.366Z,7.20
2023-01-13T16:22:34.234Z,7.30
2023-01-13T16:25:04.220Z,7.30
2023-01-13T16:27:34.076Z,7.40
2023-01-13T16:30:05.515Z,7.40
2023-01-13T16:32:35.335Z,7.40
2023-01-13T16:35:05.253Z,7.40
2023-01-13T16:37:35.263Z,7.40
2023-01-13T16:40:05.401Z,7.40
2023-01-13T16:42:34.991Z,7.40
2023-01-13T16:45:09.534Z,7.40
2023-01-13T16:47:39.742Z,7.40
2023-01-13T16:50:15.490Z,7.60
2023-01-13T16:52:45.319Z,7.60
2023-01-13T16:55:15.234Z,7.50
2023-01-13T16:57:45.109Z,7.50
2023-01-13T17:00:18.737Z,7.50
2023-01-13T17:02:48.613Z,7.50
2023-01-13T17:05:18.907Z,7.50
2023-01-13T17:07:50.215Z,7.50
2023-01-13T17:10:22.225Z,7.50
2023-01-13T17:12:52.240Z,7.50
2023-01-13T17:15:23.457Z,7.50
2023-01-13T17:17:55.271Z,7.50
2023-01-13T17:20:25.149Z,7.50
2023-01-13T17:22:58.682Z,7.50
2023-01-13T17:25:28.438Z,7.50
2023-01-13T17:27:58.619Z,7.40
2023-01-13T17:30:30.310Z,7.50
2023-01-13T17:33:00.110Z,7.40
2023-01-13T17:35:30.157Z,7.40
2023-01-13T17:37:59.776Z,7.40
2023-01-13T17:40:29.598Z,7.40
2023-01-13T17:42:59.212Z,7.40
2023-01-13T17:45:30.403Z,7.40
2023-01-13T17:48:00.230Z,7.40
2023-01-13T17:50:31.068Z,7.40
2023-01-13T17:53:01.289Z,7.40
2023-01-13T17:55:31.135Z,7.50
2023-01-13T17:58:00.921Z,7.50
2023-01-13T18:00:32.235Z,7.50
2023-01-13T18:03:01.990Z,7.50
2023-01-13T18:05:33.959Z,7.50
2023-01-13T18:08:03.575Z,7.40
2023-01-13T18:10:33.525Z,7.50
2023-01-13T18:13:03.493Z,7.40
2023-01-13T18:15:35.481Z,7.40
2023-01-13T18:18:05.393Z,7.40
2023-01-13T18:20:52.847Z,7.40
2023-01-13T18:23:40.859Z,7.40
2023-01-13T18:26:33.515Z,7.40
2023-01-13T18:29:03.626Z,7.30
2023-01-13T18:31:34.541Z,7.40
2023-01-13T18:34:04.429Z,7.30
2023-01-13T18:36:34.376Z,7.30
2023-01-13T18:39:04.622Z,7.30
2023-01-13T18:41:51.180Z,7.40
2023-01-13T18:44:21.047Z,7.40
2023-01-13T18:46:53.069Z,7.40
2023-01-13T18:49:22.897Z,7.40
2023-01-13T18:51:53.261Z,7.40
2023-01-13T18:54:23.169Z,7.40
2023-01-13T18:56:53.044Z,7.40
2023-01-13T18:59:22.875Z,7.30
2023-01-13T19:01:52.557Z,7.30
2023-01-13T19:04:22.495Z,7.30
2023-01-13T19:06:52.375Z,7.40
2023-01-13T19:09:26.538Z,7.40
2023-01-13T19:11:57.249Z,7.40
2023-01-13T19:14:35.765Z,7.30
2023-01-13T19:17:09.469Z,7.30
2023-01-13T19:19:42.599Z,7.30
2023-01-13T19:22:13.305Z,7.30
2023-01-13T19:24:43.149Z,7.30
2023-01-13T19:27:14.914Z,7.30
2023-01-13T19:29:52.235Z,7.30
2023-01-13T19:32:24.883Z,7.40
2023-01-13T19:34:55.045Z,7.30
2023-01-13T19:37:29.857Z,7.30
2023-01-13T19:39:59.033Z,7.30
2023-01-13T19:42:44.404Z,7.30
2023-01-13T19:45:35.204Z,7.30
2023-01-13T19:48:08.502Z,7.20
2023-01-13T19:50:41.763Z,7.20
2023-01-13T19:53:16.591Z,7.10
2023-01-13T19:55:47.605Z,7.10
2023-01-13T19:58:18.726Z,7.10
2023-01-13T20:00:48.760Z,7.10
2023-01-13T20:03:23.644Z,7.00
2023-01-13T20:05:53.998Z,7.10
2023-01-13T20:08:24.421Z,7.10
2023-01-13T20:11:14.984Z,7.10
2023-01-13T20:13:53.357Z,7.10
2023-01-13T20:16:23.859Z,7.10
2023-01-13T20:18:54.954Z,7.10
2023-01-13T20:21:24.813Z,7.10
2023-01-13T20:23:56.638Z,6.90
2023-01-13T20:26:26.525Z,6.90
2023-01-13T20:28:56.371Z,6.90
2023-01-13T20:31:26.428Z,6.90
2023-01-13T20:33:57.641Z,6.90
2023-01-13T20:36:31.512Z,7.00
2023-01-13T20:39:01.750Z,7.00
2023-01-13T20:41:49.452Z,6.90
2023-01-13T20:44:19.412Z,6.90
2023-01-13T20:46:49.323Z,6.90
2023-01-13T20:49:20.580Z,6.90
2023-01-13T20:51:51.481Z,7.00
2023-01-13T20:54:23.036Z,7.00
2023-01-13T20:56:52.651Z,7.00
2023-01-13T20:59:23.108Z,7.00
2023-01-13T21:01:52.756Z,7.00
2023-01-13T21:04:23.880Z,7.10
2023-01-13T21:06:54.719Z,7.00
2023-01-13T21:09:24.666Z,7.00
2023-01-13T21:12:12.240Z,7.10
2023-01-13T21:14:59.855Z,7.10
2023-01-13T21:17:47.459Z,7.10
2023-01-13T21:20:19.093Z,7.10
2023-01-13T21:22:49.557Z,7.10
2023-01-13T21:25:20.139Z,7.10
2023-01-13T21:27:49.944Z,7.10
2023-01-13T21:30:19.677Z,7.10
2023-01-13T21:32:49.518Z,7.10
2023-01-13T21:35:20.860Z,7.00
2023-01-13T21:37:50.967Z,7.10
2023-01-13T21:40:20.928Z,7.10
2023-01-13T21:43:08.351Z,7.10
2023-01-13T21:46:00.235Z,7.10
2023-01-13T21:48:30.774Z,7.10
2023-01-13T21:51:04.289Z,7.10
2023-01-13T21:53:34.043Z,7.10
2023-01-13T21:56:04.050Z,7.10
2023-01-13T21:58:33.818Z,7.10
2023-01-13T22:01:04.378Z,7.10
2023-01-13T22:03:53.019Z,7.10
2023-01-13T22:06:25.067Z,7.00
2023-01-13T22:08:55.486Z,7.00
2023-01-13T22:11:25.426Z,7.00
2023-01-13T22:14:08.977Z,7.00
2023-01-13T22:16:41.767Z,7.00
2023-01-13T22:19:12.727Z,7.00
2023-01-13T22:21:42.099Z,6.80
2023-01-13T22:24:12.575Z,6.70
2023-01-13T22:26:42.390Z,6.70
2023-01-13T22:29:12.284Z,6.50
2023-01-13T22:31:43.728Z,6.30
2023-01-13T22:34:15.100Z,6.40
2023-01-13T22:36:46.263Z,6.40
2023-01-13T22:39:16.138Z,6.40
2023-01-13T22:41:45.875Z,6.30
2023-01-13T22:44:15.706Z,6.40
2023-01-13T22:46:45.492Z,6.30
2023-01-13T22:49:16.177Z,6.30
2023-01-13T22:51:47.763Z,6.30
2023-01-13T22:54:18.127Z,6.30
2023-01-13T22:56:48.115Z,6.30
2023-01-13T22:59:18.132Z,6.30
2023-01-13T23:01:47.928Z,6.30
2023-01-13T23:04:17.956Z,6.30
2023-01-13T23:06:48.934Z,6.30
2023-01-13T23:09:18.712Z,6.30
2023-01-13T23:11:48.458Z,6.30
2023-01-13T23:14:18.257Z,6.30
2023-01-13T23:16:48.163Z,6.30
2023-01-13T23:19:18.043Z,6.30
2023-01-13T23:21:49.236Z,6.40
2023-01-13T23:24:19.331Z,6.40
2023-01-13T23:26:49.051Z,6.40
2023-01-13T23:29:18.692Z,6.40
2023-01-13T23:31:48.657Z,6.40
2023-01-13T23:34:18.491Z,6.40
2023-01-13T23:36:49.698Z,6.40
2023-01-13T23:39:19.522Z,6.40
2023-01-13T23:41:49.327Z,6.40
2023-01-13T23:44:19.228Z,6.40
2023-01-13T23:46:53.114Z,6.30
2023-01-13T23:49:22.909Z,6.30
2023-01-13T23:51:54.266Z,6.30
2023-01-13T23:54:24.117Z,6.30
2023-01-13T23:56:54.350Z,6.30
2023-01-13T23:59:24.112Z,6.30
